Time;durP1;ratioP1;P1;durP2;ratioP2;P2;SDS_P1;SDS_P2;PMS_P1;PMS_P2;Temp;Humidity;BMP_temperature;BMP_pressure;BME280_temperature;BME280_humidity;BME280_pressure;Samples;Min_cycle;Max_cycle;Signal;HPM_P1;HPM_P2
2023/05/04 00:00:04;;;;;;;4.50;2.15;;;;;;;9.97;61.16;102405.34;4990861;28;96508;-32
2023/05/04 00:02:30;;;;;;;3.28;2.08;;;;;;;9.99;62.13;102412.47;4991083;28;96838;-31
2023/05/04 00:04:56;;;;;;;3.85;1.95;;;;;;;10.01;61.47;102407.03;4990508;28;101398;-31
2023/05/04 00:07:21;;;;;;;3.30;1.88;;;;;;;9.99;61.31;102409.78;4990479;28;99394;-32
2023/05/04 00:09:46;;;;;;;4.20;2.30;;;;;;;9.94;61.78;102411.75;4991850;28;96511;-31
2023/05/04 00:12:12;;;;;;;3.28;2.22;;;;;;;9.91;63.30;102411.81;4992166;28;96738;-32
2023/05/04 00:14:37;;;;;;;2.90;1.80;;;;;;;9.89;62.74;102405.63;4991991;28;97916;-31
2023/05/04 00:17:05;;;;;;;3.00;1.95;;;;;;;9.91;61.75;102400.13;4991983;28;97791;-31
2023/05/04 00:19:32;;;;;;;4.28;2.28;;;;;;;9.89;61.66;102402.00;4991738;28;96464;-32
2023/05/04 00:21:57;;;;;;;3.40;2.15;;;;;;;9.86;61.45;102396.69;4990419;28;96801;-31
2023/05/04 00:24:22;;;;;;;3.13;2.10;;;;;;;9.81;62.09;102393.25;4992288;28;97268;-31
2023/05/04 00:26:47;;;;;;;4.03;2.30;;;;;;;9.77;61.49;102396.09;4991980;28;98889;-31
2023/05/04 00:29:13;;;;;;;3.05;1.83;;;;;;;9.76;62.27;102399.69;4994125;28;96639;-31
2023/05/04 00:31:38;;;;;;;3.20;2.05;;;;;;;9.76;62.11;102396.13;4995055;28;96850;-31
2023/05/04 00:34:03;;;;;;;3.33;2.17;;;;;;;9.71;62.33;102393.56;4994765;28;99325;-33
2023/05/04 00:36:29;;;;;;;2.50;1.73;;;;;;;9.69;62.40;102390.03;4995209;28;97815;-31
2023/05/04 00:38:54;;;;;;;3.85;2.00;;;;;;;9.61;62.46;102389.41;4995502;28;96562;-31
2023/05/04 00:41:21;;;;;;;3.97;2.65;;;;;;;9.57;62.92;102385.91;4995064;28;96801;-31
2023/05/04 00:43:47;;;;;;;2.20;1.65;;;;;;;9.56;63.06;102377.84;4993610;28;101177;-31
2023/05/04 00:46:13;;;;;;;5.03;2.80;;;;;;;9.61;64.13;102386.69;4993406;28;101021;-31
2023/05/04 00:48:39;;;;;;;5.10;2.08;;;;;;;9.64;63.38;102380.28;4995344;28;96470;-33
2023/05/04 00:51:06;;;;;;;3.40;2.15;;;;;;;9.63;62.75;102373.09;4993886;28;96797;-31
2023/05/04 00:53:31;;;;;;;4.43;2.10;;;;;;;9.61;62.57;102381.28;4993566;28;100567;-31
2023/05/04 00:55:57;;;;;;;3.80;2.25;;;;;;;9.54;63.42;102379.72;4995044;28;97945;-31
2023/05/04 00:58:23;;;;;;;3.03;2.03;;;;;;;9.54;62.82;102371.59;4994215;28;96620;-32
2023/05/04 01:00:48;;;;;;;3.78;2.20;;;;;;;9.50;63.37;102380.75;4993472;28;97078;-31
2023/05/04 01:03:14;;;;;;;3.25;2.08;;;;;;;9.45;64.20;102370.06;4994957;28;97863;-31
2023/05/04 01:05:52;;;;;;;3.05;2.05;;;;;;;9.47;64.43;102372.72;4994706;28;97308;-32
2023/05/04 01:08:20;;;;;;;7.28;2.65;;;;;;;9.48;62.81;102369.97;4993400;28;96617;-31
2023/05/04 01:10:56;;;;;;;3.60;2.40;;;;;;;9.46;64.10;102365.53;4993544;28;96814;-32
2023/05/04 01:13:24;;;;;;;2.20;1.67;;;;;;;9.47;63.83;102367.31;4993213;28;100505;-32
2023/05/04 01:15:50;;;;;;;3.92;2.22;;;;;;;9.43;63.27;102357.53;4993489;28;100976;-31
2023/05/04 01:18:16;;;;;;;3.95;2.20;;;;;;;9.41;63.89;102354.00;4994663;28;96791;-32
2023/05/04 01:20:41;;;;;;;3.28;1.88;;;;;;;9.40;64.27;102347.69;4994740;28;96781;-32
2023/05/04 01:23:08;;;;;;;3.50;2.03;;;;;;;9.47;64.52;102345.69;4992647;28;101122;-31
2023/05/04 01:25:52;;;;;;;3.63;2.23;;;;;;;9.42;64.77;102350.38;4976336;28;100664;-32
2023/05/04 01:28:23;;;;;;;2.80;1.80;;;;;;;9.33;64.23;102344.31;4994451;28;96750;-33
2023/05/04 01:30:54;;;;;;;2.20;1.80;;;;;;;9.33;64.47;102338.91;4977032;28;96878;-31
2023/05/04 01:33:20;;;;;;;3.25;1.98;;;;;;;9.31;64.34;102340.75;4994149;28;99518;-31
2023/05/04 01:35:46;;;;;;;4.53;2.50;;;;;;;9.27;64.07;102336.41;4992769;28;100964;-31
2023/05/04 01:38:11;;;;;;;4.75;2.45;;;;;;;9.26;64.51;102336.44;4994306;28;96516;-31
2023/05/04 01:40:37;;;;;;;4.25;2.67;;;;;;;9.19;64.22;102335.75;4994746;28;96785;-32
2023/05/04 01:43:02;;;;;;;4.32;2.63;;;;;;;9.17;65.13;102334.91;4992551;28;99374;-31
2023/05/04 01:45:27;;;;;;;4.55;2.42;;;;;;;9.14;64.66;102335.91;4993872;28;97755;-31
2023/05/04 01:47:53;;;;;;;4.57;2.50;;;;;;;9.12;65.63;102334.19;4993903;28;96561;-32
2023/05/04 01:50:18;;;;;;;3.97;2.38;;;;;;;9.04;65.13;102326.31;4994118;28;98381;-30
2023/05/04 01:52:43;;;;;;;3.53;2.00;;;;;;;9.04;65.16;102336.25;4993943;28;99198;-32
2023/05/04 01:55:09;;;;;;;3.40;2.25;;;;;;;9.03;65.13;102334.47;4993779;28;99367;-31
2023/05/04 01:57:34;;;;;;;3.47;2.10;;;;;;;9.04;65.42;102338.94;4993950;28;96699;-32
2023/05/04 01:59:59;;;;;;;3.50;2.08;;;;;;;9.01;65.30;102331.81;4993912;28;96814;-32
2023/05/04 02:02:25;;;;;;;4.85;2.72;;;;;;;9.02;65.22;102325.47;4994127;28;97858;-31
2023/05/04 02:04:50;;;;;;;4.07;2.20;;;;;;;8.92;65.68;102327.56;4994226;28;97830;-31
2023/05/04 02:07:16;;;;;;;4.85;2.17;;;;;;;8.93;65.01;102334.75;4993927;28;96529;-31
2023/05/04 02:09:41;;;;;;;3.05;1.90;;;;;;;8.97;65.29;102326.56;4994002;28;96756;-32
2023/05/04 02:12:07;;;;;;;3.05;1.92;;;;;;;8.92;65.02;102322.19;4993180;28;99310;-31
2023/05/04 02:14:32;;;;;;;3.25;2.10;;;;;;;8.95;65.24;102323.03;4993312;28;99695;-31
2023/05/04 02:16:57;;;;;;;4.75;2.38;;;;;;;8.90;65.00;102329.44;4993872;28;96831;-31
2023/05/04 02:19:22;;;;;;;4.50;2.35;;;;;;;8.86;65.97;102325.06;4993905;28;96834;-31
2023/05/04 02:21:48;;;;;;;4.57;2.22;;;;;;;8.88;65.72;102333.13;4993741;28;97953;-32
2023/05/04 02:24:13;;;;;;;3.92;2.55;;;;;;;8.84;65.92;102326.03;4993600;28;97317;-31
2023/05/04 02:26:39;;;;;;;2.45;1.60;;;;;;;8.79;66.01;102330.69;4993775;28;96668;-31
2023/05/04 02:29:04;;;;;;;4.55;2.63;;;;;;;8.79;66.38;102323.47;4992396;28;96717;-31
2023/05/04 02:31:31;;;;;;;4.85;2.30;;;;;;;8.80;65.51;102321.69;4991621;28;100850;-31
2023/05/04 02:33:56;;;;;;;4.20;2.28;;;;;;;8.74;65.78;102314.63;4992047;28;100962;-32
2023/05/04 02:36:21;;;;;;;2.42;1.58;;;;;;;8.74;66.17;102306.53;4992786;28;96626;-31
2023/05/04 02:38:47;;;;;;;6.93;2.17;;;;;;;8.71;66.50;102314.72;4992045;28;96817;-31
2023/05/04 02:41:12;;;;;;;3.88;2.22;;;;;;;8.72;66.66;102292.16;4993083;28;99176;-31
2023/05/04 02:43:37;;;;;;;4.70;2.08;;;;;;;8.75;66.26;102293.88;4993152;28;97825;-31
2023/05/04 02:46:03;;;;;;;3.80;2.17;;;;;;;8.69;65.79;102292.28;4992748;28;96814;-32
2023/05/04 02:48:28;;;;;;;4.38;2.22;;;;;;;8.69;66.42;102294.97;4993205;28;96812;-31
2023/05/04 02:50:55;;;;;;;3.95;2.65;;;;;;;8.63;66.39;102293.34;4992399;28;99397;-32
2023/05/04 02:53:20;;;;;;;2.65;2.00;;;;;;;8.61;66.96;102294.34;4993225;28;98759;-30
2023/05/04 02:55:46;;;;;;;3.80;2.30;;;;;;;8.65;66.35;102296.00;4991834;28;96668;-31
2023/05/04 02:58:11;;;;;;;3.60;2.10;;;;;;;8.64;67.06;102299.63;4992786;28;96821;-31
2023/05/04 03:00:36;;;;;;;4.13;2.47;;;;;;;8.64;66.45;102305.91;4992409;28;99186;-31
2023/05/04 03:03:02;;;;;;;4.13;2.40;;;;;;;8.62;66.40;102301.50;4993172;28;97626;-31
2023/05/04 03:05:27;;;;;;;3.92;2.50;;;;;;;8.61;66.72;102294.34;4991695;28;96624;-32
2023/05/04 03:07:53;;;;;;;5.70;2.30;;;;;;;8.63;67.08;102295.19;4993005;28;96910;-31
2023/05/04 03:10:18;;;;;;;3.67;2.33;;;;;;;8.62;66.96;102288.88;4992818;28;97509;-32
2023/05/04 03:12:43;;;;;;;2.40;1.75;;;;;;;8.60;66.67;102293.44;4992696;28;97745;-31
2023/05/04 03:15:09;;;;;;;5.78;2.33;;;;;;;8.56;67.00;102296.28;4992905;28;96671;-31
2023/05/04 03:17:35;;;;;;;3.00;1.88;;;;;;;8.46;66.57;102284.84;4993316;28;96764;-31
2023/05/04 03:20:00;;;;;;;3.47;2.10;;;;;;;8.48;67.59;102294.66;4992436;28;99460;-32
2023/05/04 03:22:25;;;;;;;5.70;2.38;;;;;;;8.49;66.45;102285.66;4992808;28;97850;-31
2023/05/04 03:24:51;;;;;;;2.30;1.85;;;;;;;8.45;67.94;102280.41;4992301;28;96507;-31
2023/05/04 03:27:16;;;;;;;4.18;2.20;;;;;;;8.42;67.81;102280.50;4992637;28;96755;-31
2023/05/04 03:29:41;;;;;;;2.47;2.10;;;;;;;8.44;67.96;102287.63;4992284;28;98833;-31
2023/05/04 03:32:07;;;;;;;3.75;2.42;;;;;;;8.42;66.87;102284.06;4992425;28;97489;-31
2023/05/04 03:34:32;;;;;;;4.43;2.60;;;;;;;8.43;67.03;102279.53;4992779;28;96492;-32
2023/05/04 03:36:58;;;;;;;4.00;2.38;;;;;;;8.39;66.85;102284.13;4992661;28;96749;-32
2023/05/04 03:39:23;;;;;;;4.15;1.90;;;;;;;8.35;67.25;102278.88;4991017;28;100787;-31
2023/05/04 03:41:51;;;;;;;3.55;2.15;;;;;;;8.32;67.93;102285.25;4992838;28;97838;-31
2023/05/04 03:44:16;;;;;;;3.25;2.15;;;;;;;8.27;67.11;102290.78;4990668;28;96788;-30
2023/05/04 03:46:41;;;;;;;2.33;1.77;;;;;;;8.29;67.97;102282.63;4991104;28;96819;-31
2023/05/04 03:49:07;;;;;;;3.60;1.73;;;;;;;8.33;68.26;102287.00;4991700;28;99506;-32
2023/05/04 03:51:32;;;;;;;2.38;1.55;;;;;;;8.38;68.39;102278.78;4992234;28;97790;-31
2023/05/04 03:53:58;;;;;;;3.30;2.22;;;;;;;8.38;68.28;102271.56;4991237;28;96683;-31
2023/05/04 03:56:23;;;;;;;3.00;1.98;;;;;;;8.36;67.81;102273.41;4992280;28;96756;-31
2023/05/04 03:58:48;;;;;;;2.83;1.88;;;;;;;8.39;67.93;102270.63;4992000;28;97438;-31
2023/05/04 04:01:14;;;;;;;4.45;2.10;;;;;;;8.40;68.20;102272.44;4992216;28;97361;-31
2023/05/04 04:03:39;;;;;;;2.55;2.00;;;;;;;8.25;68.53;102267.47;4991091;28;96477;-31
2023/05/04 04:06:07;;;;;;;4.22;2.13;;;;;;;8.26;68.58;102266.50;4992365;28;96806;-31
2023/05/04 04:08:32;;;;;;;2.50;1.92;;;;;;;8.27;68.41;102266.47;4990718;28;100753;-31
2023/05/04 04:10:58;;;;;;;2.40;1.95;;;;;;;8.22;67.95;102265.72;4991912;28;97294;-31
2023/05/04 04:13:23;;;;;;;2.97;1.63;;;;;;;8.22;68.41;102259.44;4991550;28;96654;-31
2023/05/04 04:15:49;;;;;;;3.58;2.20;;;;;;;8.18;68.09;102255.94;4990993;28;96785;-31
2023/05/04 04:18:15;;;;;;;3.08;1.63;;;;;;;8.13;68.01;102254.28;4990555;28;100743;-31
2023/05/04 04:20:40;;;;;;;4.47;1.88;;;;;;;8.14;68.14;102256.06;4992014;28;97769;-31
2023/05/04 04:23:06;;;;;;;2.88;1.75;;;;;;;8.06;68.30;102251.78;4991948;28;96561;-31
2023/05/04 04:25:31;;;;;;;3.80;2.15;;;;;;;8.09;67.80;102248.09;4992178;28;96851;-31
2023/05/04 04:27:56;;;;;;;3.65;1.90;;;;;;;8.05;67.98;102250.00;4991655;28;98857;-31
2023/05/04 04:30:22;;;;;;;4.68;2.05;;;;;;;8.03;68.13;102245.56;4992158;28;97766;-32
2023/05/04 04:32:48;;;;;;;3.90;1.90;;;;;;;8.02;68.55;102246.50;4992029;28;96618;-32
2023/05/04 04:35:13;;;;;;;2.58;1.60;;;;;;;7.98;68.84;102237.59;4990722;28;96797;-31
2023/05/04 04:37:39;;;;;;;3.83;2.38;;;;;;;7.97;68.20;102237.66;4990111;28;97920;-32
2023/05/04 04:40:06;;;;;;;3.53;1.80;;;;;;;7.99;68.53;102236.69;4991548;28;99311;-31
2023/05/04 04:42:32;;;;;;;4.13;2.25;;;;;;;8.00;69.00;102240.28;4973894;28;96605;-31
2023/05/04 04:44:58;;;;;;;2.67;2.05;;;;;;;7.95;68.95;102235.00;4989827;28;96923;-30
2023/05/04 04:47:23;;;;;;;2.67;1.80;;;;;;;7.95;68.40;102240.41;4991678;28;97969;-33
2023/05/04 04:49:48;;;;;;;3.15;1.95;;;;;;;7.94;68.78;102235.06;4991610;28;97254;-33
2023/05/04 06:06:51;;;;;;;4.72;2.58;;;;;;;8.53;67.84;102204.53;4992422;28;125868;-33
2023/05/04 06:09:17;;;;;;;7.90;2.40;;;;;;;8.52;69.15;102206.38;4993709;28;103321;-31
2023/05/04 06:11:42;;;;;;;2.97;2.15;;;;;;;8.59;67.74;102207.06;4993481;28;96485;-32
2023/05/04 06:14:07;;;;;;;4.55;2.00;;;;;;;8.63;68.00;102212.31;4993902;28;96787;-31
2023/05/04 06:16:33;;;;;;;3.10;2.20;;;;;;;8.68;69.20;102218.47;4993910;28;97415;-31
2023/05/04 06:18:58;;;;;;;5.88;2.88;;;;;;;8.78;67.37;102212.78;4993871;28;97776;-31
2023/05/04 06:21:23;;;;;;;2.92;2.20;;;;;;;8.86;67.88;102214.28;4994019;28;96714;-31
2023/05/04 06:23:49;;;;;;;3.20;1.95;;;;;;;8.91;67.69;102212.34;4993942;28;96776;-31
2023/05/04 06:26:14;;;;;;;3.17;1.67;;;;;;;8.99;67.43;102203.09;4992677;28;97922;-32
2023/05/04 06:28:39;;;;;;;4.38;2.28;;;;;;;9.18;67.35;102203.34;4993371;28;98759;-31
2023/05/04 06:31:05;;;;;;;3.90;2.00;;;;;;;9.34;66.50;102205.47;4993162;28;96722;-31
2023/05/04 06:33:30;;;;;;;4.13;2.08;;;;;;;9.53;66.51;102203.00;4993065;28;110036;-32
2023/05/04 06:35:57;;;;;;;3.10;2.00;;;;;;;9.67;65.96;102207.03;4992776;28;99289;-31
2023/05/04 06:38:22;;;;;;;4.10;2.22;;;;;;;9.73;65.89;102202.28;4991801;28;99879;-31
2023/05/04 06:40:48;;;;;;;3.20;2.05;;;;;;;9.80;65.86;102189.44;4993844;28;96555;-31
2023/05/04 06:43:13;;;;;;;4.43;2.13;;;;;;;9.93;65.86;102192.53;4993293;28;96947;-31
2023/05/04 06:45:38;;;;;;;3.30;2.05;;;;;;;9.96;65.30;102187.91;4992659;28;114800;-31
2023/05/04 06:48:04;;;;;;;3.15;1.92;;;;;;;10.09;65.54;102190.16;4993162;28;97749;-30
2023/05/04 06:50:31;;;;;;;4.45;2.38;;;;;;;10.12;64.83;102190.91;4991942;28;96527;-30
2023/05/04 06:53:08;;;;;;;5.28;2.60;;;;;;;10.25;65.43;102188.63;4992209;28;96891;-31
2023/05/04 06:55:34;;;;;;;3.80;2.25;;;;;;;10.34;64.99;102182.00;4993280;28;97914;-31
2023/05/04 06:58:00;;;;;;;3.47;2.28;;;;;;;10.46;64.55;102181.50;4991331;28;100936;-30
2023/05/04 07:00:25;;;;;;;6.05;2.55;;;;;;;10.55;64.65;102186.56;4992730;28;96729;-32
2023/05/04 07:02:52;;;;;;;3.50;1.80;;;;;;;10.56;64.32;102180.22;4993044;28;96620;-32
2023/05/04 07:05:17;;;;;;;4.28;2.30;;;;;;;10.74;64.39;102170.44;4992289;28;96909;-31
2023/05/04 07:07:43;;;;;;;11.70;3.22;;;;;;;10.91;63.77;102177.88;4993016;28;97250;-31
2023/05/04 07:10:09;;;;;;;4.30;2.05;;;;;;;10.97;63.51;102174.91;4993084;28;96516;-32
2023/05/04 07:12:34;;;;;;;4.75;2.17;;;;;;;10.95;63.92;102163.25;4991449;28;96816;-31
2023/05/04 07:15:00;;;;;;;4.20;2.22;;;;;;;11.09;63.72;102170.81;4992797;28;97503;-31
2023/05/04 07:17:25;;;;;;;4.57;2.30;;;;;;;11.22;63.10;102161.19;4993301;28;97958;-31
2023/05/04 07:19:53;;;;;;;3.53;2.13;;;;;;;11.29;63.12;102159.09;4992788;28;96514;-31
2023/05/04 07:22:19;;;;;;;3.20;2.15;;;;;;;11.23;63.11;102149.41;4991394;28;96587;-32
2023/05/04 07:24:45;;;;;;;3.47;2.15;;;;;;;11.34;63.40;102153.47;4990815;28;101460;-32
2023/05/04 07:27:11;;;;;;;4.82;2.25;;;;;;;11.43;62.95;102153.94;4992319;28;99369;-31
2023/05/04 07:29:36;;;;;;;3.55;2.35;;;;;;;11.47;62.86;102155.56;4992816;28;96583;-32
2023/05/04 07:32:01;;;;;;;4.57;2.83;;;;;;;11.63;62.82;102155.78;4992403;28;96824;-31
2023/05/04 07:34:27;;;;;;;4.13;1.65;;;;;;;11.74;62.31;102149.84;4992684;28;97962;-31
2023/05/04 07:36:52;;;;;;;4.28;2.15;;;;;;;11.74;62.29;102152.56;4992298;28;97301;-33
2023/05/04 07:39:18;;;;;;;3.95;2.22;;;;;;;11.88;62.13;102142.00;4992657;28;96498;-31
2023/05/04 07:41:43;;;;;;;6.47;2.60;;;;;;;12.10;61.87;102132.84;4991426;28;96819;-31
2023/05/04 07:44:10;;;;;;;5.80;2.22;;;;;;;12.18;61.42;102127.03;4992208;28;99337;-31
2023/05/04 07:46:35;;;;;;;3.78;2.22;;;;;;;12.28;61.33;102131.09;4992028;28;99290;-31
2023/05/04 07:49:01;;;;;;;6.35;2.45;;;;;;;12.37;60.90;102127.03;4992040;28;96481;-32
2023/05/04 07:51:27;;;;;;;5.68;2.53;;;;;;;12.42;60.71;102120.44;4992133;28;96829;-31
2023/05/04 07:53:52;;;;;;;5.93;1.88;;;;;;;12.51;60.68;102119.09;4992199;28;97339;-31
2023/05/04 07:56:17;;;;;;;5.45;2.33;;;;;;;12.54;60.24;102106.25;4990517;28;100022;-31
2023/05/04 07:58:43;;;;;;;4.90;2.67;;;;;;;12.65;60.31;102108.41;4992035;28;96704;-32
2023/05/04 08:01:08;;;;;;;2.92;1.95;;;;;;;12.80;60.03;102111.31;4992321;28;96761;-32
2023/05/04 08:03:33;;;;;;;4.13;2.42;;;;;;;12.89;59.84;102108.13;4992087;28;100853;-30
2023/05/04 08:05:59;;;;;;;5.93;2.50;;;;;;;13.01;59.83;102104.78;4991982;28;97930;-32
2023/05/04 08:08:24;;;;;;;4.05;2.05;;;;;;;13.12;59.47;102106.94;4992318;28;96549;-32
2023/05/04 08:10:50;;;;;;;2.95;1.98;;;;;;;13.18;59.41;102112.97;4992089;28;96801;-31
2023/05/04 08:13:15;;;;;;;3.20;2.00;;;;;;;13.21;59.21;102111.03;4991772;28;98147;-32
2023/05/04 08:15:40;;;;;;;2.55;1.92;;;;;;;13.22;58.94;102110.06;4992161;28;97896;-31
2023/05/04 08:18:06;;;;;;;3.97;2.47;;;;;;;13.33;59.23;102105.84;4992243;28;96720;-32
2023/05/04 08:20:31;;;;;;;4.72;2.80;;;;;;;13.59;58.67;102103.59;4992141;28;96735;-31
2023/05/04 08:22:57;;;;;;;7.38;2.40;;;;;;;13.70;58.30;102095.69;4991634;28;99392;-31
2023/05/04 08:25:22;;;;;;;4.97;2.53;;;;;;;13.91;57.66;102095.47;4990381;28;100991;-33
2023/05/04 08:27:48;;;;;;;4.68;2.47;;;;;;;14.00;57.31;102094.97;4991627;28;96593;-31
2023/05/04 08:30:14;;;;;;;4.13;2.30;;;;;;;14.02;57.09;102088.47;4992140;28;96926;-32
2023/05/04 08:32:39;;;;;;;4.90;2.25;;;;;;;14.06;57.19;102088.28;4991675;28;99602;-31
2023/05/04 08:35:05;;;;;;;4.82;2.40;;;;;;;14.21;57.24;102084.72;4991656;28;99111;-31
2023/05/04 08:37:31;;;;;;;4.30;2.40;;;;;;;14.35;56.94;102082.06;4991429;28;96883;-31
2023/05/04 08:39:56;;;;;;;3.20;2.28;;;;;;;14.54;56.51;102083.75;4991470;28;96884;-31
2023/05/04 08:42:31;;;;;;;5.57;2.65;;;;;;;14.72;55.95;102081.78;4991643;28;98001;-31
2023/05/04 08:44:58;;;;;;;3.75;2.22;;;;;;;14.87;55.77;102075.41;4991499;28;98246;-31
2023/05/04 08:47:24;;;;;;;4.97;2.88;;;;;;;15.07;55.14;102066.91;4990293;28;96531;-32
2023/05/04 08:49:51;;;;;;;4.55;2.53;;;;;;;15.31;55.30;102062.78;4991773;28;96768;-31
2023/05/04 08:52:21;;;;;;;4.05;2.65;;;;;;;15.53;54.75;102049.50;4993674;28;98744;-31
2023/05/04 08:54:47;;;;;;;8.48;2.72;;;;;;;15.75;54.12;102061.84;4993827;28;100736;-32
2023/05/04 08:57:15;;;;;;;3.40;2.38;;;;;;;15.86;54.05;102057.44;4993608;28;96564;-31
2023/05/04 08:59:42;;;;;;;5.40;2.95;;;;;;;15.96;54.17;102054.13;4993496;28;97000;-31
2023/05/04 09:02:10;;;;;;;9.80;3.30;;;;;;;16.13;53.66;102042.94;4993007;28;101595;-31
2023/05/04 09:04:36;;;;;;;4.38;2.42;;;;;;;16.20;53.24;102051.63;4993424;28;100751;-31
2023/05/04 09:07:02;;;;;;;4.57;2.40;;;;;;;16.37;52.36;102036.84;4994129;28;96894;-31
2023/05/04 09:09:28;;;;;;;6.60;2.88;;;;;;;16.68;52.94;102044.72;4994977;28;96796;-31
2023/05/04 09:11:53;;;;;;;4.78;2.65;;;;;;;16.86;51.99;102041.75;4993268;28;101140;-31
2023/05/04 09:14:21;;;;;;;4.82;3.03;;;;;;;16.85;51.83;102035.41;4994722;28;97665;-31
2023/05/04 09:16:47;;;;;;;4.55;2.63;;;;;;;16.90;51.89;102041.44;4993370;28;96695;-30
2023/05/04 09:19:17;;;;;;;5.68;3.15;;;;;;;17.08;51.78;102027.44;4995331;28;96818;-30
2023/05/04 09:21:43;;;;;;;3.80;2.60;;;;;;;17.15;52.22;102026.03;4992816;28;100067;-31
2023/05/04 09:24:08;;;;;;;4.28;2.88;;;;;;;17.11;52.20;102022.63;4994453;28;99382;-31
2023/05/04 09:26:33;;;;;;;5.68;3.03;;;;;;;17.17;51.52;102016.72;4994381;28;96514;-32
2023/05/04 09:29:12;;;;;;;5.82;2.80;;;;;;;17.16;51.90;102020.44;4994829;28;96904;-31
2023/05/04 09:31:46;;;;;;;4.93;2.42;;;;;;;17.35;51.84;102020.00;4992854;28;101318;-31
2023/05/04 09:34:12;;;;;;;5.60;2.70;;;;;;;17.49;51.10;102021.75;4993017;28;98794;-31
2023/05/04 09:36:38;;;;;;;6.82;2.72;;;;;;;17.54;50.78;102019.56;4993049;28;96596;-31
2023/05/04 09:39:14;;;;;;;5.22;2.45;;;;;;;17.54;50.43;102016.84;4994492;28;96769;-31
2023/05/04 09:41:40;;;;;;;4.90;2.67;;;;;;;17.60;50.87;102021.84;4992841;28;101125;-31
2023/05/04 09:44:21;;;;;;;4.10;2.70;;;;;;;17.77;49.96;102017.88;4993178;28;101059;-31
2023/05/04 09:46:57;;;;;;;5.78;3.00;;;;;;;18.09;50.27;102009.19;4994288;28;96603;-31
2023/05/04 09:49:32;;;;;;;4.65;2.72;;;;;;;18.18;49.41;101996.63;4994583;28;96586;-31
2023/05/04 09:52:01;;;;;;;6.05;2.72;;;;;;;18.21;49.62;102000.03;4992094;28;101490;-31
2023/05/04 09:54:28;;;;;;;4.30;2.33;;;;;;;18.44;49.07;101995.50;4992485;28;100991;-31
2023/05/04 09:56:58;;;;;;;4.75;2.60;;;;;;;18.63;48.43;101986.75;4992593;28;96639;-30
2023/05/04 09:59:29;;;;;;;4.85;2.70;;;;;;;18.86;48.18;101981.38;4992514;28;96849;-31
2023/05/04 10:01:55;;;;;;;3.85;2.50;;;;;;;18.81;48.51;101984.47;4991148;28;100910;-31
2023/05/04 10:04:21;;;;;;;5.78;2.85;;;;;;;18.90;48.01;101982.84;4992451;28;100922;-30
2023/05/04 10:06:47;;;;;;;5.18;3.08;;;;;;;18.93;46.48;101968.03;4992220;28;96985;-31
2023/05/04 10:09:14;;;;;;;3.75;2.42;;;;;;;19.05;48.14;101972.56;4993067;28;96745;-32
2023/05/04 10:11:41;;;;;;;3.83;2.50;;;;;;;18.92;46.72;101956.16;4992093;28;101621;-31
2023/05/04 10:14:07;;;;;;;4.22;2.72;;;;;;;19.09;47.81;101955.72;4992335;28;100935;-30
2023/05/04 10:16:58;;;;;;;6.60;3.13;;;;;;;19.36;47.16;101956.34;4993425;28;96657;-31
2023/05/04 10:19:31;;;;;;;5.40;2.85;;;;;;;19.57;47.27;101943.63;4994046;28;96600;-31
2023/05/04 10:22:36;;;;;;;4.88;2.97;;;;;;;19.77;46.20;101946.63;4991998;28;101032;-31
2023/05/04 10:25:29;;;;;;;5.18;2.42;;;;;;;19.80;46.23;101941.72;4992247;28;100817;-31
2023/05/04 10:28:22;;;;;;;4.43;2.75;;;;;;;19.73;45.93;101944.13;4993427;28;96605;-32
2023/05/04 10:30:55;;;;;;;4.60;2.70;;;;;;;19.71;46.08;101935.13;4993354;28;96748;-31
2023/05/04 10:33:20;;;;;;;5.90;2.88;;;;;;;19.67;45.47;101936.34;4992165;28;100635;-32
2023/05/04 10:35:53;;;;;;;4.32;2.90;;;;;;;19.87;45.70;101923.69;4993882;28;97605;-31
2023/05/04 10:38:18;;;;;;;7.50;2.67;;;;;;;20.08;45.22;101931.16;4992030;28;96612;-31
2023/05/04 10:40:47;;;;;;;4.60;2.88;;;;;;;20.24;44.79;101917.84;4993143;28;96832;-31
2023/05/04 10:43:21;;;;;;;6.18;3.30;;;;;;;20.34;45.27;101902.28;4991327;28;101073;-32
2023/05/04 10:45:47;;;;;;;9.07;3.25;;;;;;;20.56;44.78;101915.09;4991915;28;100761;-31
2023/05/04 10:48:12;;;;;;;4.85;2.92;;;;;;;20.49;44.43;101894.56;4993412;28;96665;-30
2023/05/04 10:50:46;;;;;;;5.85;3.33;;;;;;;20.57;44.47;101910.47;4993191;28;96883;-31
2023/05/04 10:53:13;;;;;;;6.47;2.72;;;;;;;20.50;45.10;101895.47;4991438;28;100909;-31
2023/05/04 10:55:40;;;;;;;6.65;3.40;;;;;;;20.62;44.65;101888.03;4991813;28;98663;-32
2023/05/04 10:58:06;;;;;;;6.18;3.35;;;;;;;20.79;44.58;101888.28;4991510;28;96745;-31
2023/05/04 11:00:42;;;;;;;5.65;2.97;;;;;;;20.82;44.48;101889.03;4993792;28;96763;-31
2023/05/04 11:03:07;;;;;;;4.35;2.78;;;;;;;20.95;45.03;101887.81;4991605;28;101044;-31
2023/05/04 11:05:44;;;;;;;6.40;3.13;;;;;;;21.09;43.84;101877.44;4992446;28;97931;-30
2023/05/04 11:08:25;;;;;;;4.90;3.00;;;;;;;20.93;44.12;101880.69;4991275;28;96610;-31
2023/05/04 11:11:01;;;;;;;5.93;2.90;;;;;;;21.12;44.58;101874.41;4991758;28;96924;-31
2023/05/04 11:13:28;;;;;;;4.82;3.15;;;;;;;21.30;43.84;101877.38;4992448;28;97947;-31
2023/05/04 11:15:54;;;;;;;5.32;2.83;;;;;;;21.44;44.29;101870.63;4991373;28;100762;-31
2023/05/04 11:18:25;;;;;;;7.20;3.70;;;;;;;21.66;44.14;101861.25;4992862;28;96726;-31
2023/05/04 11:20:51;;;;;;;8.13;3.65;;;;;;;21.69;43.78;101863.72;4992835;28;96799;-31
2023/05/04 11:23:16;;;;;;;5.78;3.22;;;;;;;21.81;43.34;101859.84;4992795;28;97265;-32
2023/05/04 11:25:41;;;;;;;7.20;3.22;;;;;;;21.91;44.20;101854.34;4992788;28;99093;-31
2023/05/04 11:28:07;;;;;;;7.30;3.25;;;;;;;21.88;43.70;101852.75;4992702;28;96584;-34
2023/05/04 11:30:33;;;;;;;5.85;3.60;;;;;;;21.71;43.45;101848.78;4992278;28;96902;-31
2023/05/04 11:33:00;;;;;;;5.47;3.22;;;;;;;21.67;43.72;101852.00;4991927;28;98781;-32
2023/05/04 11:35:26;;;;;;;7.28;3.45;;;;;;;21.42;43.63;101835.81;4991009;28;100792;-32
2023/05/04 11:37:52;;;;;;;4.45;2.95;;;;;;;21.24;44.27;101828.31;4992675;28;96608;-31
2023/05/04 11:40:26;;;;;;;8.02;3.20;;;;;;;21.29;43.49;101829.66;4991145;28;96811;-31
2023/05/04 11:42:54;;;;;;;4.63;3.25;;;;;;;21.41;44.13;101822.19;4992452;28;97986;-31
2023/05/04 11:45:35;;;;;;;6.22;3.00;;;;;;;21.64;44.15;101814.50;4990725;28;100927;-32
2023/05/04 11:48:01;;;;;;;5.03;3.30;;;;;;;21.84;42.71;101807.13;4992683;28;96531;-33
2023/05/04 11:50:28;;;;;;;6.60;3.50;;;;;;;21.94;43.39;101807.13;4991465;28;96708;-31
2023/05/04 11:53:05;;;;;;;5.78;3.33;;;;;;;21.97;42.37;101806.84;4990852;28;100869;-31
2023/05/04 11:55:31;;;;;;;6.03;3.22;;;;;;;22.08;42.76;101801.19;4992190;28;99108;-33
2023/05/04 11:57:56;;;;;;;13.30;4.55;;;;;;;22.23;43.45;101801.63;4991595;28;96818;-31
2023/05/04 12:00:34;;;;;;;8.38;3.65;;;;;;;22.25;42.25;101808.75;4990845;28;97425;-31
2023/05/04 12:03:00;;;;;;;6.95;4.18;;;;;;;22.44;43.02;101787.66;4991915;28;99187;-31
2023/05/04 12:05:26;;;;;;;5.78;3.50;;;;;;;22.46;42.78;101791.13;4990641;28;100666;-32
2023/05/04 12:07:51;;;;;;;4.95;3.35;;;;;;;22.51;42.21;101799.84;4992350;28;96510;-32
2023/05/04 12:10:27;;;;;;;6.63;3.17;;;;;;;22.39;41.21;101779.81;4992065;28;96822;-31
2023/05/04 12:12:52;;;;;;;9.18;4.07;;;;;;;22.35;40.56;101786.63;4992285;28;97538;-31
2023/05/04 12:15:29;;;;;;;7.80;3.55;;;;;;;22.42;42.25;101779.50;4992344;28;97797;-31
2023/05/04 12:17:54;;;;;;;7.35;3.67;;;;;;;22.61;42.21;101784.09;4990656;28;97027;-31
2023/05/04 12:20:25;;;;;;;6.40;3.22;;;;;;;22.52;40.93;101773.94;4992123;28;96873;-30
2023/05/04 12:22:50;;;;;;;7.45;3.60;;;;;;;22.32;41.55;101773.13;4989973;28;101095;-31
2023/05/04 12:25:19;;;;;;;6.38;3.00;;;;;;;22.48;41.26;101765.09;4994060;28;97938;-32
2023/05/04 12:27:45;;;;;;;6.90;3.20;;;;;;;22.60;41.13;101767.69;4995600;28;96719;-31
2023/05/04 12:30:10;;;;;;;8.45;3.60;;;;;;;22.61;40.54;101763.91;4995367;28;96750;-31
2023/05/04 12:32:36;;;;;;;7.75;3.33;;;;;;;22.69;40.44;101750.19;4995380;28;97883;-31
2023/05/04 12:35:03;;;;;;;8.13;3.88;;;;;;;22.59;40.47;101738.31;4995438;28;97858;-31
2023/05/04 12:37:29;;;;;;;8.52;4.97;;;;;;;22.39;40.17;101741.16;4995241;28;96745;-31
2023/05/04 12:39:54;;;;;;;6.93;4.00;;;;;;;22.33;41.20;101735.34;4994443;28;96832;-31